sensor_id;sensor_type;location;lat;lon;timestamp;pressure;altitude;pressure_sealevel;temperature;humidity
22000;BME280;11164;48.818;2.322;2022-07-09T00:00:03;101904.13;;;22.67;31.94
22000;BME280;11164;48.818;2.322;2022-07-09T00:02:28;101901.13;;;22.85;31.47
22000;BME280;11164;48.818;2.322;2022-07-09T00:04:55;101909.72;;;22.72;31.84
22000;BME280;11164;48.818;2.322;2022-07-09T00:07:20;101906.53;;;22.80;31.60
22000;BME280;11164;48.818;2.322;2022-07-09T00:09:46;101900.88;;;22.70;31.90
22000;BME280;11164;48.818;2.322;2022-07-09T00:12:11;101909.75;;;22.60;32.05
22000;BME280;11164;48.818;2.322;2022-07-09T00:14:36;101909.53;;;22.62;32.25
22000;BME280;11164;48.818;2.322;2022-07-09T00:17:02;101905.06;;;22.61;32.50
22000;BME280;11164;48.818;2.322;2022-07-09T00:19:27;101906.91;;;22.55;32.46
22000;BME280;11164;48.818;2.322;2022-07-09T00:21:53;101903.78;;;22.35;33.09
22000;BME280;11164;48.818;2.322;2022-07-09T00:24:18;101906.34;;;22.24;33.24
22000;BME280;11164;48.818;2.322;2022-07-09T00:26:43;101903.91;;;22.11;33.09
22000;BME280;11164;48.818;2.322;2022-07-09T00:29:09;101888.06;;;22.01;33.62
22000;BME280;11164;48.818;2.322;2022-07-09T00:31:34;101898.13;;;22.12;33.44
22000;BME280;11164;48.818;2.322;2022-07-09T00:34:00;101890.75;;;22.13;33.27
22000;BME280;11164;48.818;2.322;2022-07-09T00:36:25;101892.25;;;22.21;33.48
22000;BME280;11164;48.818;2.322;2022-07-09T00:38:51;101885.47;;;22.23;33.29
22000;BME280;11164;48.818;2.322;2022-07-09T00:41:16;101890.09;;;22.23;33.33
22000;BME280;11164;48.818;2.322;2022-07-09T00:43:48;101884.91;;;22.09;34.16
22000;BME280;11164;48.818;2.322;2022-07-09T00:46:14;101879.31;;;22.04;33.57
22000;BME280;11164;48.818;2.322;2022-07-09T00:48:40;101892.91;;;22.11;33.76
22000;BME280;11164;48.818;2.322;2022-07-09T00:51:06;101896.25;;;22.13;33.74
22000;BME280;11164;48.818;2.322;2022-07-09T00:53:32;101885.78;;;21.86;34.11
22000;BME280;11164;48.818;2.322;2022-07-09T00:55:58;101893.34;;;21.79;34.00
22000;BME280;11164;48.818;2.322;2022-07-09T00:58:24;101886.41;;;21.88;34.12
22000;BME280;11164;48.818;2.322;2022-07-09T01:00:50;101890.78;;;21.89;34.25
22000;BME280;11164;48.818;2.322;2022-07-09T01:03:15;101885.06;;;21.91;34.16
22000;BME280;11164;48.818;2.322;2022-07-09T01:05:41;101888.28;;;21.88;34.06
22000;BME280;11164;48.818;2.322;2022-07-09T01:08:07;101883.44;;;21.78;34.53
22000;BME280;11164;48.818;2.322;2022-07-09T01:10:34;101878.44;;;21.75;34.24
22000;BME280;11164;48.818;2.322;2022-07-09T01:13:00;101882.69;;;21.83;34.20
22000;BME280;11164;48.818;2.322;2022-07-09T01:15:27;101875.22;;;21.66;34.42
22000;BME280;11164;48.818;2.322;2022-07-09T01:17:52;101873.66;;;21.70;34.66
22000;BME280;11164;48.818;2.322;2022-07-09T01:20:24;101871.25;;;21.74;34.75
22000;BME280;11164;48.818;2.322;2022-07-09T01:22:50;101869.84;;;21.71;34.80
22000;BME280;11164;48.818;2.322;2022-07-09T01:25:17;101871.50;;;21.72;34.55
22000;BME280;11164;48.818;2.322;2022-07-09T01:27:43;101863.66;;;21.64;34.84
22000;BME280;11164;48.818;2.322;2022-07-09T01:30:09;101870.22;;;21.63;34.96
22000;BME280;11164;48.818;2.322;2022-07-09T01:32:34;101862.47;;;21.60;34.89
22000;BME280;11164;48.818;2.322;2022-07-09T01:35:00;101861.75;;;21.65;34.78
22000;BME280;11164;48.818;2.322;2022-07-09T01:37:26;101856.63;;;21.56;35.10
22000;BME280;11164;48.818;2.322;2022-07-09T01:39:52;101848.06;;;21.41;35.37
22000;BME280;11164;48.818;2.322;2022-07-09T01:42:18;101850.09;;;21.46;35.12
22000;BME280;11164;48.818;2.322;2022-07-09T01:44:45;101857.75;;;21.44;35.09
22000;BME280;11164;48.818;2.322;2022-07-09T01:47:11;101861.44;;;21.37;35.49
22000;BME280;11164;48.818;2.322;2022-07-09T01:49:37;101854.28;;;21.36;35.59
22000;BME280;11164;48.818;2.322;2022-07-09T01:52:03;101860.72;;;21.30;35.56
22000;BME280;11164;48.818;2.322;2022-07-09T01:54:29;101853.34;;;21.19;35.66
22000;BME280;11164;48.818;2.322;2022-07-09T01:56:54;101845.09;;;21.31;35.39
22000;BME280;11164;48.818;2.322;2022-07-09T01:59:20;101850.22;;;21.39;35.54
22000;BME280;11164;48.818;2.322;2022-07-09T02:01:45;101851.50;;;21.48;35.28
22000;BME280;11164;48.818;2.322;2022-07-09T02:04:10;101843.53;;;21.47;35.23
22000;BME280;11164;48.818;2.322;2022-07-09T02:06:36;101840.06;;;21.51;35.17
22000;BME280;11164;48.818;2.322;2022-07-09T02:09:01;101836.50;;;21.51;35.22
22000;BME280;11164;48.818;2.322;2022-07-09T02:11:26;101834.22;;;21.48;35.37
22000;BME280;11164;48.818;2.322;2022-07-09T02:13:52;101838.66;;;21.49;35.36
22000;BME280;11164;48.818;2.322;2022-07-09T02:16:17;101833.75;;;21.39;35.76
22000;BME280;11164;48.818;2.322;2022-07-09T02:18:43;101839.50;;;21.37;35.65
22000;BME280;11164;48.818;2.322;2022-07-09T02:21:09;101836.03;;;21.42;35.47
22000;BME280;11164;48.818;2.322;2022-07-09T02:23:34;101828.28;;;21.39;35.82
22000;BME280;11164;48.818;2.322;2022-07-09T02:26:00;101803.59;;;21.27;35.68
22000;BME280;11164;48.818;2.322;2022-07-09T02:28:25;101828.28;;;21.39;35.61
22000;BME280;11164;48.818;2.322;2022-07-09T02:30:51;101821.72;;;21.40;35.74
22000;BME280;11164;48.818;2.322;2022-07-09T02:33:16;101813.84;;;21.44;35.65
22000;BME280;11164;48.818;2.322;2022-07-09T02:35:41;101816.25;;;21.40;35.64
22000;BME280;11164;48.818;2.322;2022-07-09T02:38:08;101821.22;;;21.43;35.86
22000;BME280;11164;48.818;2.322;2022-07-09T02:40:33;101815.53;;;21.21;36.15
22000;BME280;11164;48.818;2.322;2022-07-09T02:42:59;101811.09;;;21.20;36.06
22000;BME280;11164;48.818;2.322;2022-07-09T02:45:24;101810.19;;;21.26;36.05
22000;BME280;11164;48.818;2.322;2022-07-09T02:47:49;101810.88;;;21.22;36.13
22000;BME280;11164;48.818;2.322;2022-07-09T02:50:15;101816.50;;;21.27;36.16
22000;BME280;11164;48.818;2.322;2022-07-09T02:52:40;101822.06;;;21.20;36.13
22000;BME280;11164;48.818;2.322;2022-07-09T02:55:06;101807.44;;;21.03;36.56
22000;BME280;11164;48.818;2.322;2022-07-09T02:57:31;101816.47;;;21.03;36.46
22000;BME280;11164;48.818;2.322;2022-07-09T02:59:56;101813.50;;;21.05;36.46
22000;BME280;11164;48.818;2.322;2022-07-09T03:02:22;101813.63;;;21.10;36.41
22000;BME280;11164;48.818;2.322;2022-07-09T03:04:47;101812.44;;;21.06;36.52
22000;BME280;11164;48.818;2.322;2022-07-09T03:07:13;101818.28;;;21.09;36.50
22000;BME280;11164;48.818;2.322;2022-07-09T03:09:39;101820.06;;;21.04;36.56
22000;BME280;11164;48.818;2.322;2022-07-09T03:12:05;101818.75;;;21.06;36.54
22000;BME280;11164;48.818;2.322;2022-07-09T03:14:30;101811.63;;;21.05;36.54
22000;BME280;11164;48.818;2.322;2022-07-09T03:16:56;101819.25;;;20.91;36.66
22000;BME280;11164;48.818;2.322;2022-07-09T03:19:21;101820.31;;;20.90;36.76
22000;BME280;11164;48.818;2.322;2022-07-09T03:21:46;101814.72;;;20.97;36.58
22000;BME280;11164;48.818;2.322;2022-07-09T03:24:11;101814.34;;;20.93;36.76
22000;BME280;11164;48.818;2.322;2022-07-09T03:26:37;101821.38;;;20.77;37.18
22000;BME280;11164;48.818;2.322;2022-07-09T03:29:03;101828.06;;;20.81;36.98
22000;BME280;11164;48.818;2.322;2022-07-09T03:31:28;101822.56;;;20.93;36.90
22000;BME280;11164;48.818;2.322;2022-07-09T03:33:53;101820.06;;;20.92;36.82
22000;BME280;11164;48.818;2.322;2022-07-09T03:36:19;101830.31;;;20.85;36.75
22000;BME280;11164;48.818;2.322;2022-07-09T03:38:45;101815.16;;;20.70;37.34
22000;BME280;11164;48.818;2.322;2022-07-09T03:41:10;101831.59;;;20.70;37.22
22000;BME280;11164;48.818;2.322;2022-07-09T03:43:35;101840.31;;;20.67;37.39
22000;BME280;11164;48.818;2.322;2022-07-09T03:46:01;101836.34;;;20.51;37.63
22000;BME280;11164;48.818;2.322;2022-07-09T03:48:27;101839.88;;;20.40;37.76
22000;BME280;11164;48.818;2.322;2022-07-09T03:50:53;101841.53;;;20.29;38.15
22000;BME280;11164;48.818;2.322;2022-07-09T03:53:18;101841.94;;;20.14;38.19
22000;BME280;11164;48.818;2.322;2022-07-09T03:55:44;101851.09;;;20.08;38.20
22000;BME280;11164;48.818;2.322;2022-07-09T03:58:10;101847.63;;;20.01;38.42
22000;BME280;11164;48.818;2.322;2022-07-09T04:00:37;101846.41;;;19.97;38.53
22000;BME280;11164;48.818;2.322;2022-07-09T04:03:02;101851.81;;;19.85;39.07
22000;BME280;11164;48.818;2.322;2022-07-09T04:05:28;101852.41;;;19.68;39.33
22000;BME280;11164;48.818;2.322;2022-07-09T04:07:53;101847.69;;;19.57;39.20
22000;BME280;11164;48.818;2.322;2022-07-09T04:10:18;101863.28;;;19.57;39.57
22000;BME280;11164;48.818;2.322;2022-07-09T04:12:44;101852.56;;;19.55;39.06
22000;BME280;11164;48.818;2.322;2022-07-09T04:15:09;101861.00;;;19.72;39.25
22000;BME280;11164;48.818;2.322;2022-07-09T04:17:35;101854.94;;;19.70;39.35
22000;BME280;11164;48.818;2.322;2022-07-09T04:20:01;101856.72;;;19.76;39.07
22000;BME280;11164;48.818;2.322;2022-07-09T04:22:26;101851.75;;;19.73;39.18
22000;BME280;11164;48.818;2.322;2022-07-09T04:24:51;101859.66;;;19.81;39.27
22000;BME280;11164;48.818;2.322;2022-07-09T04:27:17;101859.66;;;19.81;39.12
22000;BME280;11164;48.818;2.322;2022-07-09T04:29:42;101855.22;;;19.80;39.44
22000;BME280;11164;48.818;2.322;2022-07-09T04:32:09;101864.28;;;19.81;39.14
22000;BME280;11164;48.818;2.322;2022-07-09T04:34:34;101862.53;;;19.86;39.07
22000;BME280;11164;48.818;2.322;2022-07-09T04:36:59;101861.09;;;19.84;39.09
22000;BME280;11164;48.818;2.322;2022-07-09T04:39:25;101856.59;;;19.90;39.37
22000;BME280;11164;48.818;2.322;2022-07-09T04:41:51;101854.00;;;19.95;39.17
22000;BME280;11164;48.818;2.322;2022-07-09T04:44:16;101850.69;;;19.93;39.24
22000;BME280;11164;48.818;2.322;2022-07-09T04:46:42;101854.09;;;19.88;39.52
22000;BME280;11164;48.818;2.322;2022-07-09T04:49:09;101858.81;;;19.81;39.26
22000;BME280;11164;48.818;2.322;2022-07-09T04:51:34;101856.72;;;19.76;39.43
22000;BME280;11164;48.818;2.322;2022-07-09T04:53:59;101849.97;;;19.79;39.69
22000;BME280;11164;48.818;2.322;2022-07-09T04:56:25;101852.56;;;19.74;39.56
22000;BME280;11164;48.818;2.322;2022-07-09T04:58:50;101852.94;;;19.77;39.39
22000;BME280;11164;48.818;2.322;2022-07-09T05:01:22;101851.88;;;19.78;39.60
22000;BME280;11164;48.818;2.322;2022-07-09T05:03:48;101855.97;;;19.69;39.60
22000;BME280;11164;48.818;2.322;2022-07-09T05:06:15;101849.38;;;19.58;39.99
22000;BME280;11164;48.818;2.322;2022-07-09T05:08:40;101859.28;;;19.59;39.97
22000;BME280;11164;48.818;2.322;2022-07-09T05:11:06;101859.31;;;19.71;39.52
22000;BME280;11164;48.818;2.322;2022-07-09T05:13:32;101860.09;;;19.78;39.42
22000;BME280;11164;48.818;2.322;2022-07-09T05:15:57;101857.59;;;19.77;39.63
22000;BME280;11164;48.818;2.322;2022-07-09T05:18:22;101869.41;;;20.08;39.05
22000;BME280;11164;48.818;2.322;2022-07-09T05:20:48;101862.97;;;20.44;38.65
22000;BME280;11164;48.818;2.322;2022-07-09T05:23:13;101862.75;;;20.76;38.30
22000;BME280;11164;48.818;2.322;2022-07-09T05:25:38;101854.75;;;21.10;37.90
22000;BME280;11164;48.818;2.322;2022-07-09T05:28:04;101862.13;;;21.45;37.26
22000;BME280;11164;48.818;2.322;2022-07-09T05:30:29;101857.41;;;21.40;37.18
22000;BME280;11164;48.818;2.322;2022-07-09T05:32:55;101858.09;;;21.24;37.77
22000;BME280;11164;48.818;2.322;2022-07-09T05:35:20;101854.53;;;21.47;37.85
22000;BME280;11164;48.818;2.322;2022-07-09T05:37:45;101860.72;;;21.42;37.80
22000;BME280;11164;48.818;2.322;2022-07-09T05:40:11;101857.63;;;21.39;38.00
22000;BME280;11164;48.818;2.322;2022-07-09T05:42:37;101861.44;;;21.37;37.80
22000;BME280;11164;48.818;2.322;2022-07-09T05:45:05;101860.38;;;21.27;38.05
22000;BME280;11164;48.818;2.322;2022-07-09T05:47:30;101857.50;;;21.10;38.20
22000;BME280;11164;48.818;2.322;2022-07-09T05:49:56;101855.22;;;21.07;38.46
22000;BME280;11164;48.818;2.322;2022-07-09T05:52:21;101847.63;;;21.09;38.42
22000;BME280;11164;48.818;2.322;2022-07-09T05:54:47;101859.41;;;21.45;37.68
22000;BME280;11164;48.818;2.322;2022-07-09T05:57:13;101854.34;;;21.65;37.47
22000;BME280;11164;48.818;2.322;2022-07-09T05:59:39;101852.50;;;21.83;37.41
22000;BME280;11164;48.818;2.322;2022-07-09T06:02:04;101860.50;;;21.84;37.13
22000;BME280;11164;48.818;2.322;2022-07-09T06:04:30;101869.41;;;21.91;37.09
22000;BME280;11164;48.818;2.322;2022-07-09T06:06:56;101857.47;;;22.09;36.98
22000;BME280;11164;48.818;2.322;2022-07-09T06:09:21;101861.50;;;22.36;36.72
22000;BME280;11164;48.818;2.322;2022-07-09T06:11:46;101861.25;;;22.54;36.24
22000;BME280;11164;48.818;2.322;2022-07-09T06:14:12;101862.94;;;22.55;36.42
22000;BME280;11164;48.818;2.322;2022-07-09T06:16:37;101850.59;;;22.58;36.36
22000;BME280;11164;48.818;2.322;2022-07-09T06:19:02;101854.56;;;22.79;36.20
22000;BME280;11164;48.818;2.322;2022-07-09T06:21:28;101861.38;;;23.10;35.53
22000;BME280;11164;48.818;2.322;2022-07-09T06:23:53;101855.13;;;22.81;35.92
22000;BME280;11164;48.818;2.322;2022-07-09T06:26:19;101858.72;;;22.98;36.02
22000;BME280;11164;48.818;2.322;2022-07-09T06:28:44;101862.53;;;22.97;35.90
22000;BME280;11164;48.818;2.322;2022-07-09T06:31:11;101858.72;;;22.81;35.99
22000;BME280;11164;48.818;2.322;2022-07-09T06:33:36;101857.53;;;22.94;35.78
22000;BME280;11164;48.818;2.322;2022-07-09T06:36:02;101858.88;;;22.92;35.99
22000;BME280;11164;48.818;2.322;2022-07-09T06:38:28;101863.97;;;23.00;36.04
22000;BME280;11164;48.818;2.322;2022-07-09T06:40:54;101861.69;;;22.97;35.90
22000;BME280;11164;48.818;2.322;2022-07-09T06:43:20;101854.66;;;23.23;35.38
22000;BME280;11164;48.818;2.322;2022-07-09T06:45:46;101858.09;;;23.52;35.04
22000;BME280;11164;48.818;2.322;2022-07-09T06:48:11;101859.50;;;23.55;35.13
22000;BME280;11164;48.818;2.322;2022-07-09T06:50:36;101857.03;;;23.53;35.10
22000;BME280;11164;48.818;2.322;2022-07-09T06:53:02;101861.63;;;23.70;34.78
22000;BME280;11164;48.818;2.322;2022-07-09T06:55:27;101861.44;;;23.76;34.85
22000;BME280;11164;48.818;2.322;2022-07-09T06:57:53;101860.25;;;23.72;35.02
22000;BME280;11164;48.818;2.322;2022-07-09T07:00:18;101860.50;;;23.66;34.78
22000;BME280;11164;48.818;2.322;2022-07-09T07:02:44;101861.72;;;23.97;34.19
22000;BME280;11164;48.818;2.322;2022-07-09T07:05:09;101854.78;;;24.22;34.36
22000;BME280;11164;48.818;2.322;2022-07-09T07:07:34;101859.22;;;23.95;34.23
22000;BME280;11164;48.818;2.322;2022-07-09T07:09:59;101853.75;;;23.78;34.97
22000;BME280;11164;48.818;2.322;2022-07-09T07:12:25;101863.59;;;23.96;34.59
22000;BME280;11164;48.818;2.322;2022-07-09T07:14:50;101850.09;;;23.95;34.53
22000;BME280;11164;48.818;2.322;2022-07-09T07:17:16;101845.81;;;24.04;34.38
22000;BME280;11164;48.818;2.322;2022-07-09T07:19:42;101855.91;;;24.26;33.66
22000;BME280;11164;48.818;2.322;2022-07-09T07:22:07;101857.13;;;24.35;33.88
22000;BME280;11164;48.818;2.322;2022-07-09T07:24:33;101857.84;;;24.52;33.28
22000;BME280;11164;48.818;2.322;2022-07-09T07:26:58;101856.53;;;24.60;33.21
22000;BME280;11164;48.818;2.322;2022-07-09T07:29:24;101853.38;;;24.79;33.05
22000;BME280;11164;48.818;2.322;2022-07-09T07:31:50;101854.03;;;24.91;32.78
22000;BME280;11164;48.818;2.322;2022-07-09T07:34:15;101851.78;;;24.88;33.15
22000;BME280;11164;48.818;2.322;2022-07-09T07:36:42;101852.38;;;24.95;32.75
22000;BME280;11164;48.818;2.322;2022-07-09T07:39:08;101858.00;;;24.68;33.18
22000;BME280;11164;48.818;2.322;2022-07-09T07:41:33;101863.78;;;24.39;33.67
22000;BME280;11164;48.818;2.322;2022-07-09T07:43:58;101860.16;;;24.66;33.19
22000;BME280;11164;48.818;2.322;2022-07-09T07:46:24;101852.31;;;24.85;32.79
22000;BME280;11164;48.818;2.322;2022-07-09T07:48:49;101866.97;;;25.28;31.73
22000;BME280;11164;48.818;2.322;2022-07-09T07:51:15;101861.22;;;25.35;31.83
22000;BME280;11164;48.818;2.322;2022-07-09T07:53:41;101855.41;;;25.31;32.12
22000;BME280;11164;48.818;2.322;2022-07-09T07:56:06;101863.53;;;25.10;32.24
22000;BME280;11164;48.818;2.322;2022-07-09T07:58:33;101853.09;;;25.18;32.07
22000;BME280;11164;48.818;2.322;2022-07-09T08:00:58;101853.72;;;25.30;31.94
22000;BME280;11164;48.818;2.322;2022-07-09T08:03:24;101837.66;;;25.17;31.75
22000;BME280;11164;48.818;2.322;2022-07-09T08:05:50;101849.44;;;25.60;31.13
22000;BME280;11164;48.818;2.322;2022-07-09T08:08:15;101850.69;;;25.32;31.63
22000;BME280;11164;48.818;2.322;2022-07-09T08:10:43;101849.81;;;25.21;31.59
22000;BME280;11164;48.818;2.322;2022-07-09T08:13:09;101856.97;;;25.17;32.07
22000;BME280;11164;48.818;2.322;2022-07-09T08:15:36;101852.34;;;25.27;31.68
22000;BME280;11164;48.818;2.322;2022-07-09T08:18:02;101837.22;;;25.40;31.38
22000;BME280;11164;48.818;2.322;2022-07-09T08:20:27;101846.06;;;25.47;31.33
22000;BME280;11164;48.818;2.322;2022-07-09T08:22:54;101842.19;;;25.38;31.45
22000;BME280;11164;48.818;2.322;2022-07-09T08:25:19;101839.41;;;25.38;31.18
22000;BME280;11164;48.818;2.322;2022-07-09T08:27:44;101846.69;;;25.55;31.09
22000;BME280;11164;48.818;2.322;2022-07-09T08:30:10;101842.09;;;25.81;30.58
22000;BME280;11164;48.818;2.322;2022-07-09T08:32:36;101829.13;;;25.92;30.42
22000;BME280;11164;48.818;2.322;2022-07-09T08:35:02;101830.56;;;26.15;30.14
22000;BME280;11164;48.818;2.322;2022-07-09T08:37:27;101820.84;;;25.92;30.56
22000;BME280;11164;48.818;2.322;2022-07-09T08:39:53;101836.91;;;26.05;30.53
22000;BME280;11164;48.818;2.322;2022-07-09T08:42:18;101830.28;;;26.11;30.47
22000;BME280;11164;48.818;2.322;2022-07-09T08:44:48;101834.13;;;26.20;30.14
22000;BME280;11164;48.818;2.322;2022-07-09T08:47:16;101837.50;;;26.43;29.66
22000;BME280;11164;48.818;2.322;2022-07-09T08:49:42;101836.34;;;26.18;29.97
22000;BME280;11164;48.818;2.322;2022-07-09T08:52:09;101831.38;;;26.26;29.82
22000;BME280;11164;48.818;2.322;2022-07-09T08:54:35;101830.06;;;26.38;29.65
22000;BME280;11164;48.818;2.322;2022-07-09T08:57:04;101828.06;;;26.23;29.96
22000;BME280;11164;48.818;2.322;2022-07-09T08:59:31;101815.06;;;26.29;29.69
22000;BME280;11164;48.818;2.322;2022-07-09T09:01:56;101823.13;;;26.46;29.39
22000;BME280;11164;48.818;2.322;2022-07-09T09:04:23;101819.78;;;26.34;29.41
22000;BME280;11164;48.818;2.322;2022-07-09T09:06:48;101822.00;;;26.32;29.73
22000;BME280;11164;48.818;2.322;2022-07-09T09:09:18;101814.81;;;26.05;29.55
22000;BME280;11164;48.818;2.322;2022-07-09T09:11:47;101803.72;;;26.10;29.55
22000;BME280;11164;48.818;2.322;2022-07-09T09:14:20;101814.81;;;26.77;28.38
22000;BME280;11164;48.818;2.322;2022-07-09T09:16:46;101809.84;;;26.64;28.75
22000;BME280;11164;48.818;2.322;2022-07-09T09:19:12;101806.53;;;26.67;28.60
22000;BME280;11164;48.818;2.322;2022-07-09T09:21:37;101809.84;;;26.43;29.00
22000;BME280;11164;48.818;2.322;2022-07-09T09:24:03;101805.13;;;26.28;28.83
22000;BME280;11164;48.818;2.322;2022-07-09T09:26:29;101799.03;;;26.62;28.74
22000;BME280;11164;48.818;2.322;2022-07-09T09:29:04;101808.66;;;27.11;27.52
22000;BME280;11164;48.818;2.322;2022-07-09T09:31:36;101807.00;;;27.10;27.91
22000;BME280;11164;48.818;2.322;2022-07-09T09:39:13;101787.06;;;27.13;27.82
22000;BME280;11164;48.818;2.322;2022-07-09T09:41:40;101809.78;;;27.10;28.02
22000;BME280;11164;48.818;2.322;2022-07-09T09:44:08;101811.72;;;27.14;27.51
22000;BME280;11164;48.818;2.322;2022-07-09T09:46:38;101803.91;;;27.32;27.54
22000;BME280;11164;48.818;2.322;2022-07-09T09:49:05;101811.09;;;27.23;27.76
22000;BME280;11164;48.818;2.322;2022-07-09T09:51:35;101805.97;;;26.95;28.13
22000;BME280;11164;48.818;2.322;2022-07-09T09:54:02;101815.06;;;26.91;28.17
22000;BME280;11164;48.818;2.322;2022-07-09T09:56:28;101818.94;;;26.79;28.31
22000;BME280;11164;48.818;2.322;2022-07-09T09:58:55;101816.22;;;26.59;28.57
22000;BME280;11164;48.818;2.322;2022-07-09T10:01:23;101817.59;;;26.51;28.39
22000;BME280;11164;48.818;2.322;2022-07-09T10:03:49;101811.78;;;26.63;28.47
22000;BME280;11164;48.818;2.322;2022-07-09T10:06:15;101808.72;;;26.80;28.37
22000;BME280;11164;48.818;2.322;2022-07-09T10:08:40;101806.22;;;26.99;28.14
22000;BME280;11164;48.818;2.322;2022-07-09T10:11:06;101814.81;;;26.72;28.42
22000;BME280;11164;48.818;2.322;2022-07-09T10:13:31;101804.81;;;26.81;27.98
22000;BME280;11164;48.818;2.322;2022-07-09T10:15:58;101812.03;;;26.77;28.37
22000;BME280;11164;48.818;2.322;2022-07-09T10:18:24;101806.78;;;26.81;28.44
22000;BME280;11164;48.818;2.322;2022-07-09T10:20:58;101798.75;;;26.84;28.19
22000;BME280;11164;48.818;2.322;2022-07-09T10:23:24;101812.56;;;27.05;27.93
22000;BME280;11164;48.818;2.322;2022-07-09T10:25:50;101800.66;;;27.09;28.12
22000;BME280;11164;48.818;2.322;2022-07-09T10:28:19;101804.31;;;26.64;28.66
22000;BME280;11164;48.818;2.322;2022-07-09T10:30:45;101799.31;;;26.76;28.24
22000;BME280;11164;48.818;2.322;2022-07-09T10:33:12;101793.88;;;27.41;27.51
22000;BME280;11164;48.818;2.322;2022-07-09T10:35:49;101788.59;;;27.50;27.38
22000;BME280;11164;48.818;2.322;2022-07-09T10:38:17;101785.59;;;27.31;27.73
22000;BME280;11164;48.818;2.322;2022-07-09T10:43:09;101783.06;;;27.45;27.76
22000;BME280;11164;48.818;2.322;2022-07-09T10:45:43;101786.97;;;27.33;27.40
22000;BME280;11164;48.818;2.322;2022-07-09T10:48:14;101787.63;;;27.70;26.92
22000;BME280;11164;48.818;2.322;2022-07-09T10:50:41;101782.75;;;28.01;27.20
22000;BME280;11164;48.818;2.322;2022-07-09T10:53:08;101772.50;;;27.97;27.22
22000;BME280;11164;48.818;2.322;2022-07-09T10:55:34;101778.66;;;27.88;27.26
22000;BME280;11164;48.818;2.322;2022-07-09T10:57:59;101774.25;;;27.87;26.96
22000;BME280;11164;48.818;2.322;2022-07-09T11:00:29;101767.66;;;27.23;27.80
22000;BME280;11164;48.818;2.322;2022-07-09T11:02:59;101762.56;;;27.46;27.01
22000;BME280;11164;48.818;2.322;2022-07-09T11:05:28;101758.13;;;27.45;27.29
22000;BME280;11164;48.818;2.322;2022-07-09T11:08:06;101756.44;;;27.49;27.24
22000;BME280;11164;48.818;2.322;2022-07-09T11:10:38;101758.53;;;27.72;27.10
22000;BME280;11164;48.818;2.322;2022-07-09T11:13:06;101751.38;;;28.06;26.86
22000;BME280;11164;48.818;2.322;2022-07-09T11:15:34;101745.34;;;28.33;26.44
22000;BME280;11164;48.818;2.322;2022-07-09T11:20:29;101746.44;;;28.32;26.48
22000;BME280;11164;48.818;2.322;2022-07-09T11:22:55;101734.16;;;28.43;26.29
22000;BME280;11164;48.818;2.322;2022-07-09T11:25:26;101743.41;;;28.63;26.07
22000;BME280;11164;48.818;2.322;2022-07-09T11:27:53;101742.09;;;28.26;26.77
22000;BME280;11164;48.818;2.322;2022-07-09T11:30:19;101741.25;;;27.91;27.07
22000;BME280;11164;48.818;2.322;2022-07-09T11:32:45;101743.72;;;27.53;27.24
22000;BME280;11164;48.818;2.322;2022-07-09T11:35:11;101735.25;;;27.24;27.67
22000;BME280;11164;48.818;2.322;2022-07-09T11:37:37;101728.78;;;27.88;26.56
22000;BME280;11164;48.818;2.322;2022-07-09T11:40:03;101729.22;;;28.06;26.25
22000;BME280;11164;48.818;2.322;2022-07-09T11:42:29;101727.41;;;28.50;26.08
22000;BME280;11164;48.818;2.322;2022-07-09T11:44:59;101721.56;;;28.80;25.44
22000;BME280;11164;48.818;2.322;2022-07-09T11:47:32;101711.59;;;28.79;25.09
22000;BME280;11164;48.818;2.322;2022-07-09T11:50:24;101719.66;;;28.52;25.60
22000;BME280;11164;48.818;2.322;2022-07-09T11:52:51;101724.41;;;28.46;26.02
22000;BME280;11164;48.818;2.322;2022-07-09T11:55:18;101726.09;;;28.13;26.59
22000;BME280;11164;48.818;2.322;2022-07-09T11:57:53;101721.03;;;28.20;25.98
22000;BME280;11164;48.818;2.322;2022-07-09T12:00:26;101717.78;;;28.13;26.07
22000;BME280;11164;48.818;2.322;2022-07-09T12:02:54;101714.53;;;28.35;25.80
22000;BME280;11164;48.818;2.322;2022-07-09T12:05:34;101722.63;;;28.60;25.29
22000;BME280;11164;48.818;2.322;2022-07-09T12:08:06;101703.56;;;28.49;25.82
22000;BME280;11164;48.818;2.322;2022-07-09T12:10:34;101707.47;;;28.47;25.41
22000;BME280;11164;48.818;2.322;2022-07-09T12:13:01;101709.47;;;28.42;25.49
22000;BME280;11164;48.818;2.322;2022-07-09T12:15:27;101709.53;;;28.07;25.82
22000;BME280;11164;48.818;2.322;2022-07-09T12:17:55;101716.97;;;28.41;25.32
22000;BME280;11164;48.818;2.322;2022-07-09T12:20:25;101701.13;;;28.71;25.09
22000;BME280;11164;48.818;2.322;2022-07-09T12:22:51;101695.41;;;28.62;25.32
22000;BME280;11164;48.818;2.322;2022-07-09T12:25:17;101690.59;;;28.92;25.01
22000;BME280;11164;48.818;2.322;2022-07-09T12:27:43;101692.09;;;28.60;24.93
22000;BME280;11164;48.818;2.322;2022-07-09T12:30:09;101699.59;;;28.31;25.57
22000;BME280;11164;48.818;2.322;2022-07-09T12:32:34;101704.06;;;28.26;25.34
22000;BME280;11164;48.818;2.322;2022-07-09T12:35:00;101699.72;;;28.44;25.50
22000;BME280;11164;48.818;2.322;2022-07-09T12:37:27;101690.19;;;28.56;25.16
22000;BME280;11164;48.818;2.322;2022-07-09T12:39:55;101692.75;;;28.76;24.80
22000;BME280;11164;48.818;2.322;2022-07-09T12:42:20;101680.09;;;28.89;24.89
22000;BME280;11164;48.818;2.322;2022-07-09T12:44:47;101675.34;;;28.90;24.85
22000;BME280;11164;48.818;2.322;2022-07-09T12:47:13;101679.34;;;29.27;24.16
22000;BME280;11164;48.818;2.322;2022-07-09T12:49:38;101681.72;;;29.71;24.14
22000;BME280;11164;48.818;2.322;2022-07-09T12:52:03;101669.47;;;30.05;23.37
22000;BME280;11164;48.818;2.322;2022-07-09T12:54:29;101667.69;;;30.42;23.06